»·PEaware :: N695DS KCRQ-KSNA

N695DS :: KCRQ-KSNA

FLIGHT INFORMATION

Flight Status: Arrived
Operator: Privately registered:
United States
More flights under this callsign
Pilot: Christopher S. (2105)
Aircraft: Unknown
(DA62)
More flights by this aircraft type
Origin: KCRQ McClellan-Palomar
United States
Destination: KSNA John Wayne-Orange Co
United States
More flights between these airports :: More routes between these airports
Route: OCN V23 SLI
File this flight plan on PilotEdge
Remarks: TEC route SANP3
Altitude:
(Current/Filed)
6,000ft
Speed:
(Current/Filed)
170kts
Departed: 06-Jan-19 05:56 PM
Arrived: 06-Jan-19 07:08 PM
Distance/Time
Traveled:
44nm/1:12
Distance/Time
To Go:
Arrived

Flight Plot

Page will automatically refresh every two minutes.


Map Options




Map Legend


Flown Route
Filed Route
Departure Airport
Arrival Airport
Navaid (VOR, NDB)
Fix

Horizontal Profiles

Position Reports

Time Latitude Longitude Heading Altitude Ground
Speed
06-Jan-19 17:13 33.127241 -117.278513 346 309ft 0kts
06-Jan-19 17:14 33.127241 -117.278513 346 309ft 0kts
06-Jan-19 17:15 33.127241 -117.278513 346 309ft 0kts
06-Jan-19 17:16 33.127241 -117.278513 346 309ft 0kts
06-Jan-19 17:17 33.127241 -117.278513 346 309ft 0kts
06-Jan-19 17:18 33.127241 -117.278513 346 309ft 0kts
06-Jan-19 17:19 33.127241 -117.278513 346 309ft 0kts
06-Jan-19 17:20 33.127241 -117.278513 346 309ft 0kts
06-Jan-19 17:21 33.127241 -117.278513 346 309ft 0kts
06-Jan-19 17:22 33.127241 -117.278513 346 309ft 0kts
06-Jan-19 17:23 33.127241 -117.278513 346 309ft 0kts
06-Jan-19 17:24 33.127241 -117.278513 346 309ft 0kts
06-Jan-19 17:25 33.127247 -117.278511 8 309ft 0kts
06-Jan-19 17:26 33.127247 -117.278511 8 309ft 0kts
06-Jan-19 17:27 33.127247 -117.278511 8 309ft 0kts
06-Jan-19 17:27 33.127247 -117.278511 8 309ft 0kts
06-Jan-19 17:29 33.127247 -117.278511 8 309ft 0kts
06-Jan-19 17:30 33.127247 -117.278511 8 309ft 0kts
06-Jan-19 17:30 33.127247 -117.278511 8 309ft 0kts
06-Jan-19 17:31 33.127247 -117.278511 8 309ft 0kts
06-Jan-19 17:32 33.127247 -117.278511 8 309ft 0kts
06-Jan-19 17:33 33.127247 -117.278511 8 309ft 0kts
06-Jan-19 17:34 33.127247 -117.278511 8 309ft 0kts
06-Jan-19 17:35 33.127247 -117.278511 8 309ft 0kts
06-Jan-19 17:36 33.127247 -117.278511 8 309ft 0kts
06-Jan-19 17:37 33.127247 -117.278511 8 309ft 0kts
06-Jan-19 17:38 33.127247 -117.278511 8 309ft 0kts
06-Jan-19 17:39 33.127247 -117.278511 8 309ft 0kts
06-Jan-19 17:40 33.127247 -117.278511 8 309ft 0kts
06-Jan-19 17:41 33.127247 -117.278511 8 309ft 0kts
06-Jan-19 17:42 33.127247 -117.278511 8 309ft 0kts
06-Jan-19 17:43 33.127247 -117.278511 8 309ft 0kts
06-Jan-19 17:44 33.127247 -117.278511 8 309ft 0kts
06-Jan-19 17:45 33.127247 -117.278511 8 309ft 0kts
06-Jan-19 17:46 33.127247 -117.278511 8 309ft 0kts
06-Jan-19 17:47 33.127595 -117.278441 16 309ft 5kts
06-Jan-19 17:48 33.128084 -117.275868 84 308ft 10kts
06-Jan-19 17:49 33.128695 -117.272556 351 301ft 0kts
06-Jan-19 17:50 33.128695 -117.272556 352 301ft 0kts
06-Jan-19 17:51 33.128695 -117.272556 351 301ft 0kts
06-Jan-19 17:52 33.128695 -117.272556 351 301ft 0kts
06-Jan-19 17:53 33.128695 -117.272556 351 301ft 0kts
06-Jan-19 17:54 33.129303 -117.272621 0 303ft 6kts
06-Jan-19 17:55 33.127750 -117.282254 259 430ft 87kts
06-Jan-19 17:56 33.122033 -117.313753 258 1381ft 109kts
06-Jan-19 17:57 33.114741 -117.346521 257 2249ft 110kts
06-Jan-19 17:58 33.119433 -117.377047 344 2439ft 119kts
06-Jan-19 17:59 33.142857 -117.351742 82 1701ft 137kts
06-Jan-19 18:00 33.137820 -117.307848 97 1033ft 128kts
06-Jan-19 18:01 33.142087 -117.270897 71 901ft 81kts
06-Jan-19 18:02 33.137442 -117.248525 192 738ft 92kts
06-Jan-19 18:03 33.129056 -117.274965 258 309ft 75kts
06-Jan-19 18:04 33.127117 -117.281912 87 312ft 12kts
06-Jan-19 18:05 33.126764 -117.280846 356 310ft 0kts
06-Jan-19 18:23 33.126763 -117.280905 20 311ft 0kts
06-Jan-19 18:24 33.126763 -117.280905 20 311ft 0kts
06-Jan-19 18:25 33.126763 -117.280905 20 311ft 0kts
06-Jan-19 18:26 33.126763 -117.280905 20 311ft 0kts
06-Jan-19 18:27 33.126763 -117.280905 20 311ft 0kts
06-Jan-19 18:28 33.126792 -117.280892 20 311ft 0kts
06-Jan-19 18:29 33.127538 -117.278911 71 309ft 14kts
06-Jan-19 18:30 33.128421 -117.273759 70 304ft 18kts
06-Jan-19 18:31 33.128772 -117.272337 329 300ft 0kts
06-Jan-19 18:32 33.129204 -117.272517 344 302ft 4kts
06-Jan-19 18:33 33.127134 -117.287886 262 652ft 86kts
06-Jan-19 18:34 33.118824 -117.323246 261 1578ft 125kts
06-Jan-19 18:35 33.111029 -117.364727 262 2596ft 128kts
06-Jan-19 18:36 33.108137 -117.407660 316 3073ft 143kts
06-Jan-19 18:37 33.145703 -117.413444 352 3867ft 136kts
06-Jan-19 18:38 33.182317 -117.414797 350 4798ft 128kts
06-Jan-19 18:39 33.217337 -117.416444 349 5782ft 126kts
06-Jan-19 18:40 33.254590 -117.423511 304 6011ft 145kts
06-Jan-19 18:41 33.282697 -117.459658 330 6016ft 160kts
06-Jan-19 18:42 33.324116 -117.480118 331 6016ft 161kts
06-Jan-19 18:43 33.365619 -117.500514 332 6016ft 162kts
06-Jan-19 18:44 33.406817 -117.520702 332 6015ft 158kts
06-Jan-19 18:45 33.447416 -117.540527 332 6008ft 158kts
06-Jan-19 18:46 33.488227 -117.560415 332 5998ft 159kts
06-Jan-19 18:47 33.529024 -117.580126 332 5997ft 158kts
06-Jan-19 18:48 33.569950 -117.599727 332 5996ft 159kts
06-Jan-19 18:49 33.611029 -117.619249 332 5996ft 160kts
06-Jan-19 18:50 33.652478 -117.638806 332 5993ft 161kts
06-Jan-19 18:51 33.694087 -117.658538 331 5998ft 160kts
06-Jan-19 18:52 33.737768 -117.679465 331 5255ft 169kts
06-Jan-19 18:53 33.778503 -117.697866 331 4941ft 142kts
06-Jan-19 18:54 33.816975 -117.710581 6 4162ft 156kts
06-Jan-19 18:55 33.857538 -117.693289 11 3459ft 148kts
06-Jan-19 18:56 33.890068 -117.687681 315 3443ft 101kts
06-Jan-19 18:57 33.913352 -117.709033 299 3500ft 103kts
06-Jan-19 18:58 33.890732 -117.733083 212 3315ft 146kts
06-Jan-19 18:59 33.857400 -117.753334 215 2868ft 119kts
06-Jan-19 19:00 33.830793 -117.770203 221 2917ft 109kts
06-Jan-19 19:01 33.802891 -117.788140 218 2737ft 122kts
06-Jan-19 19:02 33.771207 -117.808283 211 2110ft 133kts
06-Jan-19 19:03 33.743791 -117.825709 202 1498ft 91kts
06-Jan-19 19:04 33.722225 -117.839304 204 980ft 86kts
06-Jan-19 19:05 33.701195 -117.852648 206 523ft 85kts
06-Jan-19 19:06 33.680787 -117.865625 205 81ft 78kts
06-Jan-19 19:07 33.672141 -117.872015 255 60ft 9kts
06-Jan-19 19:08 33.671954 -117.872633 229 60ft 9kts
06-Jan-19 19:09 33.671695 -117.873580 205 60ft 4kts
06-Jan-19 19:10 33.671691 -117.873685 29 60ft 0kts
06-Jan-19 19:11 33.671691 -117.873685 29 60ft 0kts
06-Jan-19 19:12 33.671691 -117.873685 29 60ft 0kts
06-Jan-19 19:13 33.671691 -117.873685 29 60ft 0kts
06-Jan-19 19:14 33.671691 -117.873685 29 60ft 0kts
06-Jan-19 19:15 33.671691 -117.873685 29 60ft 0kts
06-Jan-19 19:16 33.671691 -117.873685 29 60ft 0kts
06-Jan-19 19:17 33.671691 -117.873685 29 60ft 0kts
06-Jan-19 19:18 33.671691 -117.873685 29 60ft 0kts
06-Jan-19 19:19 33.671691 -117.873685 29 60ft 0kts

Navigation Log

Ident Type
Flight plan parsing failed, navigation log unavailable